Accueil
METAR-TAF:

METAR-TAF

Aéroports :

Lecce, Italie

latitude: 40-14N, longitude: 018-09E, altitude: 48 m

Observation

Le bulletin a été fait il y a 1 heure et 1 minutes, à 13:55 UTC
Température 27°C
Humidité 58%
Pression 1016 hPa
Visibilité 10 km ou plus
Nuages fragmentés à une hauteur de 4000 ft

METAR: LIBN 141355Z /////KT 9999 BKN040 27/18 Q1016 RMK BKN VIS MIN 9999 WIND THR14 /////KT WIND THR32 /////KT BLU

Heure: 16:56 (14:56 UTC)

Prévision

Le bulletin a été fait il y a 56 minutes, à 14:00 UTC
Prévision valable du 14 à 15 UTC au 14 à 24 UTC
Vent 15 kt de nord
Visibilité 10 km ou plus
Nuages fragmentés à une hauteur de 3500 ft
Evoluant progressivement
du 14 à 17 UTC au 14 à 19 UTC
Vent 5 kt de nord/nord-ouest
Quelques nuages à une hauteur de 4000 ft

TAF: LIBN 141400Z 1415/1424 36015KT 9999 BKN035 BECMG 1417/1419 34005KT FEW040

Observations et prévisions météorologiques de plus de 4000 aéroports (messages METAR et TAF).

Les stations disponibles sont représentées par des disques jaunes et rouges sur la carte.

Passer la souris dessus pour voir le nom de la station.

Cliquer dessus pour voir les observations et prévisions météorologiques.

Pour changer de carte: cliquez sur les boutons verts avec une croix noire pour zoomer, sur le bouton vert avec un tiret pour effectuer un zoom arrière, ou sur les flèches vertes pour les cartes adjacentes.


METAR-TAF: